sensor_id;sensor_type;location;lat;lon;timestamp;P1;durP1;ratioP1;P2;durP2;ratioP2
73900;SDS011;62235;52.160;7.526;2023-07-08T00:00:18;7.72;;;2.67;;
73900;SDS011;62235;52.160;7.526;2023-07-08T00:02:44;5.38;;;2.00;;
73900;SDS011;62235;52.160;7.526;2023-07-08T00:05:10;5.93;;;2.10;;
73900;SDS011;62235;52.160;7.526;2023-07-08T00:07:37;4.80;;;1.90;;
73900;SDS011;62235;52.160;7.526;2023-07-08T00:10:09;2.83;;;1.70;;
73900;SDS011;62235;52.160;7.526;2023-07-08T00:12:36;2.53;;;1.73;;
73900;SDS011;62235;52.160;7.526;2023-07-08T00:15:02;6.00;;;1.77;;
73900;SDS011;62235;52.160;7.526;2023-07-08T00:17:27;3.70;;;1.77;;
73900;SDS011;62235;52.160;7.526;2023-07-08T00:19:53;1.80;;;1.50;;
73900;SDS011;62235;52.160;7.526;2023-07-08T00:22:19;4.18;;;1.83;;
73900;SDS011;62235;52.160;7.526;2023-07-08T00:24:45;3.13;;;1.80;;
73900;SDS011;62235;52.160;7.526;2023-07-08T00:27:11;3.97;;;1.73;;
73900;SDS011;62235;52.160;7.526;2023-07-08T00:29:37;3.13;;;1.65;;
73900;SDS011;62235;52.160;7.526;2023-07-08T00:32:10;2.50;;;1.77;;
73900;SDS011;62235;52.160;7.526;2023-07-08T00:34:38;3.13;;;1.73;;
73900;SDS011;62235;52.160;7.526;2023-07-08T00:37:04;3.67;;;1.98;;
73900;SDS011;62235;52.160;7.526;2023-07-08T00:39:30;7.63;;;1.77;;
73900;SDS011;62235;52.160;7.526;2023-07-08T00:41:56;4.07;;;1.85;;
73900;SDS011;62235;52.160;7.526;2023-07-08T00:44:24;2.85;;;1.90;;
73900;SDS011;62235;52.160;7.526;2023-07-08T00:54:48;3.55;;;1.88;;
73900;SDS011;62235;52.160;7.526;2023-07-08T00:57:14;2.88;;;1.67;;
73900;SDS011;62235;52.160;7.526;2023-07-08T00:59:42;2.90;;;2.00;;
73900;SDS011;62235;52.160;7.526;2023-07-08T01:02:11;4.10;;;1.80;;
73900;SDS011;62235;52.160;7.526;2023-07-08T01:04:39;4.45;;;1.80;;
73900;SDS011;62235;52.160;7.526;2023-07-08T01:07:11;2.78;;;1.73;;
73900;SDS011;62235;52.160;7.526;2023-07-08T01:09:37;3.55;;;1.90;;
73900;SDS011;62235;52.160;7.526;2023-07-08T01:12:08;2.45;;;1.80;;
73900;SDS011;62235;52.160;7.526;2023-07-08T01:17:00;2.80;;;1.60;;
73900;SDS011;62235;52.160;7.526;2023-07-08T01:19:26;2.92;;;1.83;;
73900;SDS011;62235;52.160;7.526;2023-07-08T01:21:59;3.25;;;1.90;;
73900;SDS011;62235;52.160;7.526;2023-07-08T01:24:26;3.47;;;1.70;;
73900;SDS011;62235;52.160;7.526;2023-07-08T01:26:52;2.90;;;2.15;;
73900;SDS011;62235;52.160;7.526;2023-07-08T01:29:18;3.28;;;2.03;;
73900;SDS011;62235;52.160;7.526;2023-07-08T01:31:43;3.63;;;1.93;;
73900;SDS011;62235;52.160;7.526;2023-07-08T01:34:13;2.55;;;1.83;;
73900;SDS011;62235;52.160;7.526;2023-07-08T01:36:40;2.60;;;1.75;;
73900;SDS011;62235;52.160;7.526;2023-07-08T01:39:10;2.92;;;1.80;;
73900;SDS011;62235;52.160;7.526;2023-07-08T01:41:39;3.17;;;2.08;;
73900;SDS011;62235;52.160;7.526;2023-07-08T01:44:05;4.85;;;2.20;;
73900;SDS011;62235;52.160;7.526;2023-07-08T01:46:30;6.15;;;1.95;;
73900;SDS011;62235;52.160;7.526;2023-07-08T01:48:57;3.13;;;1.90;;
73900;SDS011;62235;52.160;7.526;2023-07-08T01:51:25;3.05;;;2.00;;
73900;SDS011;62235;52.160;7.526;2023-07-08T01:53:50;2.38;;;1.60;;
73900;SDS011;62235;52.160;7.526;2023-07-08T01:56:16;4.47;;;1.92;;
73900;SDS011;62235;52.160;7.526;2023-07-08T01:58:41;2.72;;;1.90;;
73900;SDS011;62235;52.160;7.526;2023-07-08T02:01:07;3.53;;;1.80;;
73900;SDS011;62235;52.160;7.526;2023-07-08T02:03:33;2.42;;;1.70;;
73900;SDS011;62235;52.160;7.526;2023-07-08T02:05:58;2.63;;;1.83;;
73900;SDS011;62235;52.160;7.526;2023-07-08T02:08:24;3.00;;;2.00;;
73900;SDS011;62235;52.160;7.526;2023-07-08T02:10:50;3.45;;;2.05;;
73900;SDS011;62235;52.160;7.526;2023-07-08T02:13:18;5.50;;;1.77;;
73900;SDS011;62235;52.160;7.526;2023-07-08T02:15:43;3.35;;;1.80;;
73900;SDS011;62235;52.160;7.526;2023-07-08T02:18:09;2.40;;;1.83;;
73900;SDS011;62235;52.160;7.526;2023-07-08T02:20:34;3.95;;;2.00;;
73900;SDS011;62235;52.160;7.526;2023-07-08T02:22:59;2.67;;;2.00;;
73900;SDS011;62235;52.160;7.526;2023-07-08T02:25:25;2.60;;;1.90;;
73900;SDS011;62235;52.160;7.526;2023-07-08T02:27:51;4.17;;;2.43;;
73900;SDS011;62235;52.160;7.526;2023-07-08T02:30:17;3.28;;;1.98;;
73900;SDS011;62235;52.160;7.526;2023-07-08T02:32:42;4.07;;;1.80;;
73900;SDS011;62235;52.160;7.526;2023-07-08T02:35:13;3.35;;;2.00;;
73900;SDS011;62235;52.160;7.526;2023-07-08T02:37:38;3.73;;;1.80;;
73900;SDS011;62235;52.160;7.526;2023-07-08T02:40:04;3.03;;;1.70;;
73900;SDS011;62235;52.160;7.526;2023-07-08T02:42:31;2.60;;;1.90;;
73900;SDS011;62235;52.160;7.526;2023-07-08T02:44:56;3.17;;;2.00;;
73900;SDS011;62235;52.160;7.526;2023-07-08T02:47:21;3.28;;;1.98;;
73900;SDS011;62235;52.160;7.526;2023-07-08T02:49:47;2.50;;;1.77;;
73900;SDS011;62235;52.160;7.526;2023-07-08T02:52:12;2.73;;;1.73;;
73900;SDS011;62235;52.160;7.526;2023-07-08T02:54:37;3.30;;;1.83;;
73900;SDS011;62235;52.160;7.526;2023-07-08T02:57:03;3.27;;;1.80;;
73900;SDS011;62235;52.160;7.526;2023-07-08T02:59:28;5.53;;;1.92;;
73900;SDS011;62235;52.160;7.526;2023-07-08T03:01:53;2.70;;;1.70;;
73900;SDS011;62235;52.160;7.526;2023-07-08T03:04:19;4.50;;;1.65;;
73900;SDS011;62235;52.160;7.526;2023-07-08T03:06:46;3.50;;;1.77;;
73900;SDS011;62235;52.160;7.526;2023-07-08T03:09:12;6.15;;;2.05;;
73900;SDS011;62235;52.160;7.526;2023-07-08T03:11:38;2.85;;;1.92;;
73900;SDS011;62235;52.160;7.526;2023-07-08T03:14:04;3.03;;;1.92;;
73900;SDS011;62235;52.160;7.526;2023-07-08T03:16:30;4.97;;;2.13;;
73900;SDS011;62235;52.160;7.526;2023-07-08T03:18:55;3.72;;;1.95;;
73900;SDS011;62235;52.160;7.526;2023-07-08T03:21:20;3.13;;;1.70;;
73900;SDS011;62235;52.160;7.526;2023-07-08T03:23:47;3.50;;;2.10;;
73900;SDS011;62235;52.160;7.526;2023-07-08T03:26:17;4.25;;;2.20;;
73900;SDS011;62235;52.160;7.526;2023-07-08T03:28:44;3.25;;;2.05;;
73900;SDS011;62235;52.160;7.526;2023-07-08T03:31:10;4.68;;;2.03;;
73900;SDS011;62235;52.160;7.526;2023-07-08T03:33:35;2.70;;;2.05;;
73900;SDS011;62235;52.160;7.526;2023-07-08T03:36:01;6.05;;;2.20;;
73900;SDS011;62235;52.160;7.526;2023-07-08T03:38:27;3.95;;;2.03;;
73900;SDS011;62235;52.160;7.526;2023-07-08T03:40:52;3.33;;;2.03;;
73900;SDS011;62235;52.160;7.526;2023-07-08T03:43:18;4.18;;;2.50;;
73900;SDS011;62235;52.160;7.526;2023-07-08T03:45:43;4.07;;;2.00;;
73900;SDS011;62235;52.160;7.526;2023-07-08T03:48:11;5.05;;;2.20;;
73900;SDS011;62235;52.160;7.526;2023-07-08T03:53:02;3.50;;;2.13;;
73900;SDS011;62235;52.160;7.526;2023-07-08T03:55:28;3.75;;;1.83;;
73900;SDS011;62235;52.160;7.526;2023-07-08T03:57:53;2.67;;;1.70;;
73900;SDS011;62235;52.160;7.526;2023-07-08T04:00:19;2.60;;;1.95;;
73900;SDS011;62235;52.160;7.526;2023-07-08T04:02:45;5.07;;;2.10;;
73900;SDS011;62235;52.160;7.526;2023-07-08T04:05:13;3.47;;;2.03;;
73900;SDS011;62235;52.160;7.526;2023-07-08T04:07:39;3.20;;;1.95;;
73900;SDS011;62235;52.160;7.526;2023-07-08T04:10:05;3.00;;;2.20;;
73900;SDS011;62235;52.160;7.526;2023-07-08T04:12:31;3.95;;;2.13;;
73900;SDS011;62235;52.160;7.526;2023-07-08T04:14:56;4.63;;;2.33;;
73900;SDS011;62235;52.160;7.526;2023-07-08T04:17:22;3.40;;;2.33;;
73900;SDS011;62235;52.160;7.526;2023-07-08T04:19:48;4.00;;;2.50;;
73900;SDS011;62235;52.160;7.526;2023-07-08T04:22:14;4.82;;;2.30;;
73900;SDS011;62235;52.160;7.526;2023-07-08T04:24:39;2.83;;;1.87;;
73900;SDS011;62235;52.160;7.526;2023-07-08T04:27:05;3.77;;;2.00;;
73900;SDS011;62235;52.160;7.526;2023-07-08T04:29:30;3.70;;;2.20;;
73900;SDS011;62235;52.160;7.526;2023-07-08T04:31:55;4.47;;;2.20;;
73900;SDS011;62235;52.160;7.526;2023-07-08T04:34:21;4.93;;;2.43;;
73900;SDS011;62235;52.160;7.526;2023-07-08T04:36:46;5.80;;;2.60;;
73900;SDS011;62235;52.160;7.526;2023-07-08T04:39:12;3.63;;;2.23;;
73900;SDS011;62235;52.160;7.526;2023-07-08T04:41:38;3.38;;;2.38;;
73900;SDS011;62235;52.160;7.526;2023-07-08T04:44:06;4.75;;;2.25;;
73900;SDS011;62235;52.160;7.526;2023-07-08T04:46:39;3.60;;;2.20;;
73900;SDS011;62235;52.160;7.526;2023-07-08T04:49:07;3.45;;;2.05;;
73900;SDS011;62235;52.160;7.526;2023-07-08T04:51:34;6.85;;;2.10;;
73900;SDS011;62235;52.160;7.526;2023-07-08T04:54:00;3.45;;;2.15;;
73900;SDS011;62235;52.160;7.526;2023-07-08T04:56:26;6.18;;;2.30;;
73900;SDS011;62235;52.160;7.526;2023-07-08T04:59:00;5.10;;;2.10;;
73900;SDS011;62235;52.160;7.526;2023-07-08T05:01:26;3.30;;;2.10;;
73900;SDS011;62235;52.160;7.526;2023-07-08T05:03:52;3.78;;;2.28;;
73900;SDS011;62235;52.160;7.526;2023-07-08T05:06:17;3.63;;;2.60;;
73900;SDS011;62235;52.160;7.526;2023-07-08T05:08:42;3.63;;;2.30;;
73900;SDS011;62235;52.160;7.526;2023-07-08T05:11:08;5.15;;;2.42;;
73900;SDS011;62235;52.160;7.526;2023-07-08T05:13:33;3.43;;;2.20;;
73900;SDS011;62235;52.160;7.526;2023-07-08T05:15:58;4.00;;;2.00;;
73900;SDS011;62235;52.160;7.526;2023-07-08T05:18:23;4.88;;;2.38;;
73900;SDS011;62235;52.160;7.526;2023-07-08T05:20:52;6.77;;;2.43;;
73900;SDS011;62235;52.160;7.526;2023-07-08T05:23:19;3.45;;;2.00;;
73900;SDS011;62235;52.160;7.526;2023-07-08T05:25:44;5.38;;;2.10;;
73900;SDS011;62235;52.160;7.526;2023-07-08T05:28:10;4.33;;;2.10;;
73900;SDS011;62235;52.160;7.526;2023-07-08T05:30:35;2.78;;;1.80;;
73900;SDS011;62235;52.160;7.526;2023-07-08T05:33:01;3.80;;;1.83;;
73900;SDS011;62235;52.160;7.526;2023-07-08T05:35:26;4.05;;;2.00;;
73900;SDS011;62235;52.160;7.526;2023-07-08T05:37:51;1.92;;;1.73;;
73900;SDS011;62235;52.160;7.526;2023-07-08T05:40:17;3.45;;;1.92;;
73900;SDS011;62235;52.160;7.526;2023-07-08T05:42:42;3.05;;;1.58;;
73900;SDS011;62235;52.160;7.526;2023-07-08T05:45:08;3.15;;;1.88;;
73900;SDS011;62235;52.160;7.526;2023-07-08T05:47:35;4.43;;;2.20;;
73900;SDS011;62235;52.160;7.526;2023-07-08T05:50:01;5.43;;;2.10;;
73900;SDS011;62235;52.160;7.526;2023-07-08T05:52:26;3.13;;;2.10;;
73900;SDS011;62235;52.160;7.526;2023-07-08T05:54:51;4.07;;;2.20;;
73900;SDS011;62235;52.160;7.526;2023-07-08T05:57:17;2.80;;;1.90;;
73900;SDS011;62235;52.160;7.526;2023-07-08T05:59:42;5.65;;;2.17;;
73900;SDS011;62235;52.160;7.526;2023-07-08T06:02:11;5.82;;;2.17;;
73900;SDS011;62235;52.160;7.526;2023-07-08T06:04:37;5.05;;;2.10;;
73900;SDS011;62235;52.160;7.526;2023-07-08T06:07:02;4.50;;;2.20;;
73900;SDS011;62235;52.160;7.526;2023-07-08T06:09:28;4.97;;;2.10;;
73900;SDS011;62235;52.160;7.526;2023-07-08T06:11:53;6.25;;;1.92;;
73900;SDS011;62235;52.160;7.526;2023-07-08T06:14:18;4.90;;;2.20;;
73900;SDS011;62235;52.160;7.526;2023-07-08T06:16:44;3.40;;;1.88;;
73900;SDS011;62235;52.160;7.526;2023-07-08T06:19:09;5.32;;;1.90;;
73900;SDS011;62235;52.160;7.526;2023-07-08T06:21:35;2.53;;;1.85;;
73900;SDS011;62235;52.160;7.526;2023-07-08T06:24:00;3.72;;;1.98;;
73900;SDS011;62235;52.160;7.526;2023-07-08T06:26:25;3.58;;;2.20;;
73900;SDS011;62235;52.160;7.526;2023-07-08T06:28:51;3.90;;;2.00;;
73900;SDS011;62235;52.160;7.526;2023-07-08T06:31:16;4.25;;;2.20;;
73900;SDS011;62235;52.160;7.526;2023-07-08T06:33:42;3.40;;;2.08;;
73900;SDS011;62235;52.160;7.526;2023-07-08T06:36:07;3.25;;;1.90;;
73900;SDS011;62235;52.160;7.526;2023-07-08T06:38:32;3.35;;;1.92;;
73900;SDS011;62235;52.160;7.526;2023-07-08T06:40:58;4.05;;;2.10;;
73900;SDS011;62235;52.160;7.526;2023-07-08T06:43:23;4.90;;;1.90;;
73900;SDS011;62235;52.160;7.526;2023-07-08T06:45:48;2.97;;;2.00;;
73900;SDS011;62235;52.160;7.526;2023-07-08T06:48:14;4.70;;;2.27;;
73900;SDS011;62235;52.160;7.526;2023-07-08T06:50:41;3.42;;;1.90;;
73900;SDS011;62235;52.160;7.526;2023-07-08T06:53:08;5.07;;;2.03;;
73900;SDS011;62235;52.160;7.526;2023-07-08T06:55:33;2.67;;;1.95;;
73900;SDS011;62235;52.160;7.526;2023-07-08T06:57:58;2.87;;;1.80;;
73900;SDS011;62235;52.160;7.526;2023-07-08T07:00:24;4.13;;;2.03;;
73900;SDS011;62235;52.160;7.526;2023-07-08T07:02:49;6.73;;;2.00;;
73900;SDS011;62235;52.160;7.526;2023-07-08T07:05:14;5.73;;;2.43;;
73900;SDS011;62235;52.160;7.526;2023-07-08T07:07:40;2.80;;;1.98;;
73900;SDS011;62235;52.160;7.526;2023-07-08T07:10:05;4.73;;;2.30;;
73900;SDS011;62235;52.160;7.526;2023-07-08T07:12:33;4.38;;;2.10;;
73900;SDS011;62235;52.160;7.526;2023-07-08T07:14:59;6.22;;;2.05;;
73900;SDS011;62235;52.160;7.526;2023-07-08T07:17:24;4.80;;;2.30;;
73900;SDS011;62235;52.160;7.526;2023-07-08T07:19:51;3.72;;;2.05;;
73900;SDS011;62235;52.160;7.526;2023-07-08T07:22:16;3.63;;;1.98;;
73900;SDS011;62235;52.160;7.526;2023-07-08T07:24:41;3.70;;;2.40;;
73900;SDS011;62235;52.160;7.526;2023-07-08T07:27:07;3.45;;;2.00;;
73900;SDS011;62235;52.160;7.526;2023-07-08T07:29:46;5.20;;;2.35;;
73900;SDS011;62235;52.160;7.526;2023-07-08T07:32:13;4.07;;;2.13;;
73900;SDS011;62235;52.160;7.526;2023-07-08T07:34:39;5.60;;;2.20;;
73900;SDS011;62235;52.160;7.526;2023-07-08T07:37:05;4.05;;;2.00;;
73900;SDS011;62235;52.160;7.526;2023-07-08T07:39:31;4.03;;;2.20;;
73900;SDS011;62235;52.160;7.526;2023-07-08T07:41:56;4.23;;;2.03;;
73900;SDS011;62235;52.160;7.526;2023-07-08T07:44:21;4.43;;;2.17;;
73900;SDS011;62235;52.160;7.526;2023-07-08T07:46:47;5.40;;;2.30;;
73900;SDS011;62235;52.160;7.526;2023-07-08T07:49:12;5.53;;;2.50;;
73900;SDS011;62235;52.160;7.526;2023-07-08T07:51:38;2.88;;;2.17;;
73900;SDS011;62235;52.160;7.526;2023-07-08T07:54:03;4.45;;;2.30;;
73900;SDS011;62235;52.160;7.526;2023-07-08T07:56:29;3.53;;;2.27;;
73900;SDS011;62235;52.160;7.526;2023-07-08T07:58:54;3.65;;;1.90;;
73900;SDS011;62235;52.160;7.526;2023-07-08T08:01:19;6.45;;;2.53;;
73900;SDS011;62235;52.160;7.526;2023-07-08T08:03:45;3.92;;;2.50;;
73900;SDS011;62235;52.160;7.526;2023-07-08T08:06:10;3.28;;;2.25;;
73900;SDS011;62235;52.160;7.526;2023-07-08T08:08:35;4.57;;;2.22;;
73900;SDS011;62235;52.160;7.526;2023-07-08T08:11:01;3.83;;;2.33;;
73900;SDS011;62235;52.160;7.526;2023-07-08T08:13:26;5.60;;;2.40;;
73900;SDS011;62235;52.160;7.526;2023-07-08T08:15:55;3.30;;;1.98;;
73900;SDS011;62235;52.160;7.526;2023-07-08T08:18:22;3.63;;;2.50;;
73900;SDS011;62235;52.160;7.526;2023-07-08T08:20:49;7.63;;;2.90;;
73900;SDS011;62235;52.160;7.526;2023-07-08T08:23:15;4.45;;;3.35;;
73900;SDS011;62235;52.160;7.526;2023-07-08T08:25:41;4.38;;;2.60;;
73900;SDS011;62235;52.160;7.526;2023-07-08T08:28:07;5.30;;;2.77;;
73900;SDS011;62235;52.160;7.526;2023-07-08T08:30:32;7.63;;;2.53;;
73900;SDS011;62235;52.160;7.526;2023-07-08T08:32:57;5.20;;;2.33;;
73900;SDS011;62235;52.160;7.526;2023-07-08T08:35:23;5.25;;;2.20;;
73900;SDS011;62235;52.160;7.526;2023-07-08T08:37:48;4.93;;;2.95;;
73900;SDS011;62235;52.160;7.526;2023-07-08T08:40:17;4.88;;;2.40;;
73900;SDS011;62235;52.160;7.526;2023-07-08T08:42:44;3.67;;;2.67;;
73900;SDS011;62235;52.160;7.526;2023-07-08T08:45:16;5.95;;;3.00;;
73900;SDS011;62235;52.160;7.526;2023-07-08T08:47:45;4.53;;;2.53;;
73900;SDS011;62235;52.160;7.526;2023-07-08T08:50:29;3.63;;;2.47;;
73900;SDS011;62235;52.160;7.526;2023-07-08T08:52:58;5.05;;;2.78;;
73900;SDS011;62235;52.160;7.526;2023-07-08T08:55:24;4.28;;;2.40;;
73900;SDS011;62235;52.160;7.526;2023-07-08T09:00:45;4.43;;;3.17;;
73900;SDS011;62235;52.160;7.526;2023-07-08T09:03:18;10.73;;;3.10;;
73900;SDS011;62235;52.160;7.526;2023-07-08T09:05:52;5.15;;;3.22;;
73900;SDS011;62235;52.160;7.526;2023-07-08T09:08:30;4.95;;;2.95;;
73900;SDS011;62235;52.160;7.526;2023-07-08T09:11:01;5.15;;;2.95;;
73900;SDS011;62235;52.160;7.526;2023-07-08T09:13:34;4.15;;;3.00;;
73900;SDS011;62235;52.160;7.526;2023-07-08T09:18:43;4.15;;;2.50;;
73900;SDS011;62235;52.160;7.526;2023-07-08T09:21:17;5.00;;;3.17;;
73900;SDS011;62235;52.160;7.526;2023-07-08T09:23:45;4.68;;;2.97;;
73900;SDS011;62235;52.160;7.526;2023-07-08T09:26:16;4.53;;;3.20;;
73900;SDS011;62235;52.160;7.526;2023-07-08T09:28:44;4.95;;;3.00;;
73900;SDS011;62235;52.160;7.526;2023-07-08T09:31:26;5.60;;;2.85;;
73900;SDS011;62235;52.160;7.526;2023-07-08T09:34:04;4.90;;;3.00;;
73900;SDS011;62235;52.160;7.526;2023-07-08T09:36:30;5.57;;;3.05;;
73900;SDS011;62235;52.160;7.526;2023-07-08T09:38:55;4.30;;;2.90;;
73900;SDS011;62235;52.160;7.526;2023-07-08T09:41:33;4.90;;;2.83;;
73900;SDS011;62235;52.160;7.526;2023-07-08T09:44:33;3.83;;;3.00;;
73900;SDS011;62235;52.160;7.526;2023-07-08T09:46:55;4.65;;;3.13;;
73900;SDS011;62235;52.160;7.526;2023-07-08T09:51:47;4.38;;;2.67;;
73900;SDS011;62235;52.160;7.526;2023-07-08T09:54:15;5.78;;;3.47;;
73900;SDS011;62235;52.160;7.526;2023-07-08T09:56:42;6.35;;;3.22;;
73900;SDS011;62235;52.160;7.526;2023-07-08T09:59:12;5.30;;;3.35;;
73900;SDS011;62235;52.160;7.526;2023-07-08T10:01:39;7.40;;;3.45;;
73900;SDS011;62235;52.160;7.526;2023-07-08T10:04:05;4.72;;;3.42;;
73900;SDS011;62235;52.160;7.526;2023-07-08T10:06:32;4.80;;;3.05;;
73900;SDS011;62235;52.160;7.526;2023-07-08T10:09:31;4.78;;;3.28;;
73900;SDS011;62235;52.160;7.526;2023-07-08T10:11:51;5.47;;;3.10;;
73900;SDS011;62235;52.160;7.526;2023-07-08T10:14:36;5.10;;;3.22;;
73900;SDS011;62235;52.160;7.526;2023-07-08T10:17:03;8.55;;;3.90;;
73900;SDS011;62235;52.160;7.526;2023-07-08T10:19:28;7.80;;;3.72;;
73900;SDS011;62235;52.160;7.526;2023-07-08T10:27:14;6.38;;;3.30;;
73900;SDS011;62235;52.160;7.526;2023-07-08T10:38:02;5.50;;;3.60;;
73900;SDS011;62235;52.160;7.526;2023-07-08T10:43:17;5.25;;;3.30;;
73900;SDS011;62235;52.160;7.526;2023-07-08T10:49:01;9.65;;;3.90;;
73900;SDS011;62235;52.160;7.526;2023-07-08T10:54:58;6.15;;;3.60;;
73900;SDS011;62235;52.160;7.526;2023-07-08T11:00:50;5.75;;;3.20;;
73900;SDS011;62235;52.160;7.526;2023-07-08T11:03:41;7.25;;;3.63;;
73900;SDS011;62235;52.160;7.526;2023-07-08T11:06:50;4.55;;;3.10;;
73900;SDS011;62235;52.160;7.526;2023-07-08T11:09:26;6.65;;;3.80;;
73900;SDS011;62235;52.160;7.526;2023-07-08T11:11:56;4.93;;;3.72;;
73900;SDS011;62235;52.160;7.526;2023-07-08T11:14:27;4.72;;;3.55;;
73900;SDS011;62235;52.160;7.526;2023-07-08T11:17:10;7.07;;;3.95;;
73900;SDS011;62235;52.160;7.526;2023-07-08T11:19:44;6.85;;;5.22;;
73900;SDS011;62235;52.160;7.526;2023-07-08T11:22:20;5.03;;;3.35;;
73900;SDS011;62235;52.160;7.526;2023-07-08T11:24:47;5.00;;;3.70;;
73900;SDS011;62235;52.160;7.526;2023-07-08T11:27:16;6.55;;;3.67;;
73900;SDS011;62235;52.160;7.526;2023-07-08T11:29:50;7.13;;;3.75;;
73900;SDS011;62235;52.160;7.526;2023-07-08T11:32:19;8.65;;;3.70;;
73900;SDS011;62235;52.160;7.526;2023-07-08T11:34:47;5.32;;;3.45;;
73900;SDS011;62235;52.160;7.526;2023-07-08T11:37:14;5.03;;;3.40;;
73900;SDS011;62235;52.160;7.526;2023-07-08T11:39:41;8.15;;;4.05;;
73900;SDS011;62235;52.160;7.526;2023-07-08T11:44:57;5.22;;;3.72;;
73900;SDS011;62235;52.160;7.526;2023-07-08T11:55:27;7.38;;;3.83;;
73900;SDS011;62235;52.160;7.526;2023-07-08T11:58:00;7.03;;;3.80;;
73900;SDS011;62235;52.160;7.526;2023-07-08T12:00:26;6.72;;;4.20;;
73900;SDS011;62235;52.160;7.526;2023-07-08T12:02:57;7.20;;;4.20;;
73900;SDS011;62235;52.160;7.526;2023-07-08T12:05:31;5.20;;;3.42;;
73900;SDS011;62235;52.160;7.526;2023-07-08T12:07:58;7.90;;;3.83;;
73900;SDS011;62235;52.160;7.526;2023-07-08T12:13:03;6.18;;;3.92;;
73900;SDS011;62235;52.160;7.526;2023-07-08T12:15:34;7.85;;;4.55;;
73900;SDS011;62235;52.160;7.526;2023-07-08T12:20:48;6.38;;;3.90;;
73900;SDS011;62235;52.160;7.526;2023-07-08T12:23:20;6.88;;;4.57;;
73900;SDS011;62235;52.160;7.526;2023-07-08T12:25:47;8.73;;;4.22;;
73900;SDS011;62235;52.160;7.526;2023-07-08T12:28:13;5.65;;;4.50;;
73900;SDS011;62235;52.160;7.526;2023-07-08T12:30:39;5.82;;;4.15;;
73900;SDS011;62235;52.160;7.526;2023-07-08T12:33:08;6.97;;;4.15;;
73900;SDS011;62235;52.160;7.526;2023-07-08T12:35:36;6.13;;;4.13;;
73900;SDS011;62235;52.160;7.526;2023-07-08T12:38:02;5.32;;;3.90;;
73900;SDS011;62235;52.160;7.526;2023-07-08T12:40:30;7.32;;;4.05;;
73900;SDS011;62235;52.160;7.526;2023-07-08T12:42:56;7.28;;;4.40;;
73900;SDS011;62235;52.160;7.526;2023-07-08T12:45:22;6.43;;;4.30;;
73900;SDS011;62235;52.160;7.526;2023-07-08T12:47:48;6.47;;;4.43;;
73900;SDS011;62235;52.160;7.526;2023-07-08T12:50:15;8.35;;;4.25;;
73900;SDS011;62235;52.160;7.526;2023-07-08T12:52:42;5.78;;;4.30;;
73900;SDS011;62235;52.160;7.526;2023-07-08T12:55:09;6.65;;;3.75;;
73900;SDS011;62235;52.160;7.526;2023-07-08T12:57:35;6.40;;;4.25;;
73900;SDS011;62235;52.160;7.526;2023-07-08T13:00:01;6.22;;;4.22;;
73900;SDS011;62235;52.160;7.526;2023-07-08T13:02:27;6.78;;;4.13;;
73900;SDS011;62235;52.160;7.526;2023-07-08T13:04:55;6.32;;;4.30;;
73900;SDS011;62235;52.160;7.526;2023-07-08T13:07:25;6.72;;;4.57;;
73900;SDS011;62235;52.160;7.526;2023-07-08T13:09:56;6.32;;;4.10;;
73900;SDS011;62235;52.160;7.526;2023-07-08T13:12:21;7.50;;;3.88;;
73900;SDS011;62235;52.160;7.526;2023-07-08T13:14:49;6.80;;;4.05;;
73900;SDS011;62235;52.160;7.526;2023-07-08T13:19:42;7.45;;;4.32;;
73900;SDS011;62235;52.160;7.526;2023-07-08T13:22:10;8.38;;;4.57;;
73900;SDS011;62235;52.160;7.526;2023-07-08T13:24:39;5.57;;;3.85;;
73900;SDS011;62235;52.160;7.526;2023-07-08T13:27:06;9.73;;;4.40;;
73900;SDS011;62235;52.160;7.526;2023-07-08T13:29:37;6.47;;;4.30;;
73900;SDS011;62235;52.160;7.526;2023-07-08T13:32:04;5.35;;;4.20;;
73900;SDS011;62235;52.160;7.526;2023-07-08T13:34:30;6.28;;;4.22;;
73900;SDS011;62235;52.160;7.526;2023-07-08T13:36:57;8.35;;;4.35;;
73900;SDS011;62235;52.160;7.526;2023-07-08T13:39:32;6.97;;;4.20;;
73900;SDS011;62235;52.160;7.526;2023-07-08T13:41:58;6.75;;;4.40;;
73900;SDS011;62235;52.160;7.526;2023-07-08T13:44:24;6.80;;;4.30;;
73900;SDS011;62235;52.160;7.526;2023-07-08T13:49:16;5.97;;;3.97;;
73900;SDS011;62235;52.160;7.526;2023-07-08T13:51:46;6.88;;;4.60;;
73900;SDS011;62235;52.160;7.526;2023-07-08T13:54:13;10.20;;;4.10;;
73900;SDS011;62235;52.160;7.526;2023-07-08T13:56:53;7.80;;;3.97;;
73900;SDS011;62235;52.160;7.526;2023-07-08T13:59:22;5.65;;;3.95;;
73900;SDS011;62235;52.160;7.526;2023-07-08T14:01:48;5.22;;;3.67;;
73900;SDS011;62235;52.160;7.526;2023-07-08T14:04:18;7.63;;;4.18;;
73900;SDS011;62235;52.160;7.526;2023-07-08T14:06:44;5.55;;;4.40;;
73900;SDS011;62235;52.160;7.526;2023-07-08T14:09:14;7.82;;;4.38;;
73900;SDS011;62235;52.160;7.526;2023-07-08T14:14:09;7.03;;;4.00;;
73900;SDS011;62235;52.160;7.526;2023-07-08T14:16:36;5.80;;;3.55;;
73900;SDS011;62235;52.160;7.526;2023-07-08T14:19:05;6.40;;;3.67;;
73900;SDS011;62235;52.160;7.526;2023-07-08T14:21:32;8.13;;;4.18;;
73900;SDS011;62235;52.160;7.526;2023-07-08T14:23:58;7.18;;;4.10;;
73900;SDS011;62235;52.160;7.526;2023-07-08T14:26:23;6.72;;;4.07;;
73900;SDS011;62235;52.160;7.526;2023-07-08T14:28:49;9.23;;;4.00;;
73900;SDS011;62235;52.160;7.526;2023-07-08T14:31:15;5.82;;;4.10;;
73900;SDS011;62235;52.160;7.526;2023-07-08T14:33:44;6.63;;;3.92;;
73900;SDS011;62235;52.160;7.526;2023-07-08T14:36:10;7.53;;;4.07;;
73900;SDS011;62235;52.160;7.526;2023-07-08T14:38:35;5.93;;;4.28;;
73900;SDS011;62235;52.160;7.526;2023-07-08T14:41:01;4.68;;;3.92;;
73900;SDS011;62235;52.160;7.526;2023-07-08T14:43:27;5.90;;;4.38;;
73900;SDS011;62235;52.160;7.526;2023-07-08T14:45:56;9.23;;;4.38;;
73900;SDS011;62235;52.160;7.526;2023-07-08T14:48:30;5.53;;;3.92;;
73900;SDS011;62235;52.160;7.526;2023-07-08T14:50:57;6.90;;;4.50;;
73900;SDS011;62235;52.160;7.526;2023-07-08T14:53:23;4.72;;;3.70;;
73900;SDS011;62235;52.160;7.526;2023-07-08T14:55:49;6.47;;;4.22;;
73900;SDS011;62235;52.160;7.526;2023-07-08T14:58:19;7.65;;;3.40;;
73900;SDS011;62235;52.160;7.526;2023-07-08T15:00:46;6.25;;;3.67;;
73900;SDS011;62235;52.160;7.526;2023-07-08T15:03:11;5.25;;;3.80;;
73900;SDS011;62235;52.160;7.526;2023-07-08T15:05:37;8.03;;;4.63;;
73900;SDS011;62235;52.160;7.526;2023-07-08T15:08:02;6.55;;;4.13;;
73900;SDS011;62235;52.160;7.526;2023-07-08T15:10:30;6.13;;;4.15;;
73900;SDS011;62235;52.160;7.526;2023-07-08T15:12:57;6.47;;;3.97;;
73900;SDS011;62235;52.160;7.526;2023-07-08T15:15:28;5.50;;;4.07;;
73900;SDS011;62235;52.160;7.526;2023-07-08T15:20:23;7.40;;;4.05;;
73900;SDS011;62235;52.160;7.526;2023-07-08T15:22:49;8.45;;;3.95;;
73900;SDS011;62235;52.160;7.526;2023-07-08T15:25:15;6.28;;;3.80;;
73900;SDS011;62235;52.160;7.526;2023-07-08T15:27:41;7.00;;;3.67;;
73900;SDS011;62235;52.160;7.526;2023-07-08T15:30:20;7.35;;;4.25;;
73900;SDS011;62235;52.160;7.526;2023-07-08T15:32:49;5.82;;;4.05;;
73900;SDS011;62235;52.160;7.526;2023-07-08T15:35:20;7.38;;;4.63;;
73900;SDS011;62235;52.160;7.526;2023-07-08T15:37:46;6.57;;;4.35;;
73900;SDS011;62235;52.160;7.526;2023-07-08T15:40:13;7.47;;;4.30;;
73900;SDS011;62235;52.160;7.526;2023-07-08T15:45:39;9.98;;;4.13;;
73900;SDS011;62235;52.160;7.526;2023-07-08T15:47:57;9.13;;;4.63;;
73900;SDS011;62235;52.160;7.526;2023-07-08T15:50:24;6.93;;;4.10;;
73900;SDS011;62235;52.160;7.526;2023-07-08T15:52:51;6.05;;;4.07;;
73900;SDS011;62235;52.160;7.526;2023-07-08T15:55:24;6.32;;;4.13;;
73900;SDS011;62235;52.160;7.526;2023-07-08T16:00:39;6.28;;;4.20;;
73900;SDS011;62235;52.160;7.526;2023-07-08T16:03:06;6.75;;;4.38;;
73900;SDS011;62235;52.160;7.526;2023-07-08T16:05:34;6.35;;;4.32;;
73900;SDS011;62235;52.160;7.526;2023-07-08T16:08:01;8.15;;;4.07;;